Barrow, AK

12:35 PM AKDT on July 06, 2015 (GMT -0800)
Barrow Utilities | | Change Station
CLOSE
Current Station
Personal Weather Station
Location: BARROW, AK
Elevation: 30 ft
Nearby Weather Stations

Elev 30 ft 71.29 °N, 156.78 °W | Updated 12 seconds ago

Scattered Clouds
Scattered Clouds
61.3 °F
Feels Like 61.3 °F
N
2.0
Wind Variable Wind from SE
Gusts 6.0 mph

Today
High -- | Low -- °F
--% Chance of Precip.
Yesterday
High -- | Low -- °F
Precip. -- in
2:00 PM 2:00 PM
Waning Gibbous, 72% visible
Pressure 30.01 in
Visibility 10.0 miles
Clouds Scattered Clouds 20000 ft
Dew Point 52 °F
Humidity 70%
Rainfall 0.00 in
Snow Depth Not available.
UV 0.0 out of 12
Pollen Not available.
Air Quality Not available.
Flu Activity Not available.
METAR PABR 061953Z 11012KT 10SM SCT200 16/08 A3000 RMK SLP161 T01560083 VIA AUTODIAL

More Conditions Fewer Conditions

Pressure 30.01 in
Visibility 10.0 miles
Clouds Scattered Clouds 20000 ft
Dew Point 52 °F
Humidity 70%
Rainfall 0.00 in
Snow Depth Not available.
UV 0.0 out of 12
Pollen Not available.
Air Quality Not available.
Flu Activity Not available.
METAR PABR 061953Z 11012KT 10SM SCT200 16/08 A3000 RMK SLP161 T01560083 VIA AUTODIAL

More Conditions Fewer Conditions

10-Day Weather Forecast

×

Almanac

Astronomy

Jul. 06, 2015 Rise Set
Actual Time
Civil Twilight
Nautical Twilight
Astronomical Twilight
Moon
Length of Visible Light
Length of Day
Tomorrow will be .
, % of the Moon is Illuminated

Today's Extremes

State Highs State Lows

Community

WunderPhotos

Upload Photos

1,835,638 photos uploaded!

WunderBlogs® & News

Nearby

Air Quality

  Air Quality AQ Index Pollutant
Not available.

Snow Depth

Station Depth Elevation

Earthquake Activity

City Distance Mag. Time & Date
Minimum magnitude displayed is 2.5.

Coastal Water Temperatures

Place Temperature

Stations

Nearby Weather Stations

Station Location Temp. Windchill Dew Point Humidity Wind Precip. Elev Updated Type